Time;durP1;ratioP1;P1;durP2;ratioP2;P2;SDS_P1;SDS_P2;PMS_P1;PMS_P2;Temp;Humidity;BMP_temperature;BMP_pressure;BME280_temperature;BME280_humidity;BME280_pressure;Samples;Min_cycle;Max_cycle;Signal;HPM_P1;HPM_P2
2023/11/04 00:00:47;;;;;;;3.60;0.70;;;;;;;12.54;55.78;96329.52;107979;1271;72387;-86
2023/11/04 00:03:34;;;;;;;1.70;0.90;;;;;;;12.56;55.87;96336.16;108029;1271;74385;-86
2023/11/04 00:06:01;;;;;;;2.80;0.80;;;;;;;12.56;56.07;96337.63;108210;1271;72335;-85
2023/11/04 00:08:28;;;;;;;3.40;0.70;;;;;;;12.56;56.02;96350.14;107771;1271;61306;-86
2023/11/04 00:10:55;;;;;;;2.00;0.60;;;;;;;12.55;55.89;96357.09;107779;1271;60198;-86
2023/11/04 00:13:23;;;;;;;3.00;0.90;;;;;;;12.54;55.94;96355.23;107973;1271;73132;-86
2023/11/04 00:15:51;;;;;;;5.00;0.80;;;;;;;12.53;56.12;96348.92;107805;1272;73161;-87
2023/11/04 00:18:18;;;;;;;4.00;0.80;;;;;;;12.50;56.22;96358.21;107653;1273;71574;-88
2023/11/04 00:20:45;;;;;;;3.60;1.00;;;;;;;12.45;56.71;96372.90;107893;1273;59352;-87
2023/11/04 00:23:18;;;;;;;3.40;0.60;;;;;;;12.41;56.40;96378.05;107852;1272;59541;-87
2023/11/04 00:25:45;;;;;;;2.80;0.70;;;;;;;12.37;56.23;96384.17;107711;1272;72670;-87
2023/11/04 00:28:12;;;;;;;2.20;0.60;;;;;;;12.36;55.86;96391.36;107887;1271;74370;-87
2023/11/04 00:30:40;;;;;;;2.50;0.50;;;;;;;12.35;55.90;96384.43;107958;1271;71403;-87
2023/11/04 00:33:07;;;;;;;3.00;0.70;;;;;;;12.36;56.17;96367.10;107814;1271;59009;-87
2023/11/04 00:35:34;;;;;;;4.20;0.90;;;;;;;12.35;56.32;96371.10;108353;1271;58968;-88
2023/11/04 00:38:01;;;;;;;4.60;0.90;;;;;;;12.34;56.39;96376.59;108319;1271;72617;-87
2023/11/04 00:40:28;;;;;;;3.10;0.90;;;;;;;12.33;56.47;96371.58;107907;1271;73761;-87
2023/11/04 00:42:56;;;;;;;2.90;1.00;;;;;;;12.32;56.41;96375.83;108423;1272;72940;-89
2023/11/04 00:45:23;;;;;;;5.20;0.90;;;;;;;12.29;56.43;96364.20;108196;1273;59105;-89
2023/11/04 00:47:50;;;;;;;3.80;1.00;;;;;;;12.26;56.37;96370.88;108337;1272;59163;-88
2023/11/04 00:50:17;;;;;;;3.40;0.70;;;;;;;12.23;56.01;96366.98;108265;1272;72532;-87
2023/11/04 00:52:49;;;;;;;4.70;0.80;;;;;;;12.22;55.89;96373.45;108251;1273;74145;-87
2023/11/04 00:55:17;;;;;;;3.70;1.40;;;;;;;12.20;56.11;96376.11;107884;1273;71838;-88
2023/11/04 00:57:45;;;;;;;3.50;0.90;;;;;;;12.20;56.18;96378.87;107855;1272;59079;-87
2023/11/04 01:00:12;;;;;;;3.80;1.20;;;;;;;12.19;56.24;96370.73;107711;1273;60251;-87
2023/11/04 01:02:49;;;;;;;2.60;0.90;;;;;;;12.18;56.44;96372.27;107688;1273;73454;-87
2023/11/04 01:06:06;;;;;;;2.10;0.90;;;;;;;12.16;56.53;96374.27;107617;1273;74292;-87
2023/11/04 01:08:34;;;;;;;3.20;0.80;;;;;;;12.14;56.25;96374.34;107417;1273;71667;-88
2023/11/04 01:11:13;;;;;;;3.50;1.10;;;;;;;12.11;56.33;96376.20;107787;1272;60020;-88
2023/11/04 01:14:30;;;;;;;2.60;0.80;;;;;;;12.09;56.35;96382.18;107691;1265;59693;31
2023/11/04 01:21:21;;;;;;;4.00;0.90;;;;;;;12.06;56.53;96388.26;106197;1273;69910;-87
2023/11/04 01:23:49;;;;;;;4.00;0.90;;;;;;;12.04;56.45;96387.91;107646;1273;71683;-88
2023/11/04 01:26:16;;;;;;;2.00;0.50;;;;;;;12.04;56.52;96392.26;107360;1273;61618;-86
2023/11/04 01:28:43;;;;;;;2.20;0.70;;;;;;;12.03;56.28;96395.95;107534;1276;59249;-84
2023/11/04 01:31:20;;;;;;;1.10;0.50;;;;;;;12.03;56.22;96396.11;107628;1273;76018;-88
2023/11/04 01:34:15;;;;;;;2.30;0.50;;;;;;;12.04;56.12;96400.09;107315;1273;75273;-90
2023/11/04 01:36:48;;;;;;;1.50;0.60;;;;;;;12.06;55.66;96407.92;107415;1273;72050;-88
2023/11/04 01:39:40;;;;;;;1.80;0.40;;;;;;;12.10;55.56;96409.89;107348;1273;59517;-89
2023/11/04 01:42:44;;;;;;;;;;;;;;;;;;;;;
2023/11/04 01:45:41;;;;;;;2.50;0.40;;;;;;;12.19;55.86;96407.29;107543;1273;74015;-87
2023/11/04 01:48:48;;;;;;;1.20;0.50;;;;;;;12.22;55.72;96408.90;107525;1273;75535;-90
2023/11/04 01:52:04;;;;;;;2.30;0.40;;;;;;;12.23;55.82;96418.39;107710;1273;71447;-88
2023/11/04 01:55:07;;;;;;;;;;;;;;;;;;;;;
2023/11/04 01:57:45;;;;;;;;;;;;;;;12.18;56.14;96421.25;107572;1273;61603;-88
2023/11/04 02:00:34;;;;;;;5.80;0.70;;;;;;;12.15;56.49;96432.84;107640;1273;74395;-89
2023/11/04 02:03:24;;;;;;;2.10;0.60;;;;;;;12.12;55.81;96429.54;107459;1275;74755;-90
2023/11/04 02:06:09;;;;;;;2.00;0.60;;;;;;;12.12;55.86;96446.94;107650;1273;73717;-89
2023/11/04 02:09:11;;;;;;;2.10;0.60;;;;;;;12.13;56.15;96444.41;107768;1273;60168;-89
2023/11/04 02:12:04;;;;;;;2.50;0.90;;;;;;;12.10;56.71;96446.63;107729;1273;61521;-90
2023/11/04 02:14:56;;;;;;;1.90;0.60;;;;;;;12.05;57.39;96448.60;107708;1273;74820;-90
2023/11/04 02:17:59;;;;;;;2.70;1.00;;;;;;;12.00;57.50;96454.02;107749;1273;74532;-90
2023/11/04 02:20:43;;;;;;;2.20;0.70;;;;;;;11.91;57.70;96452.98;107861;1273;72345;-89
2023/11/04 02:23:33;;;;;;;2.10;0.70;;;;;;;11.83;57.99;96466.51;107689;1273;59049;-90
2023/11/04 02:26:21;;;;;;;2.20;0.80;;;;;;;11.72;58.34;96454.06;107443;1279;61301;-89
2023/11/04 02:29:08;;;;;;;0.60;0.40;;;;;;;11.63;58.13;96456.30;108064;1273;72609;-88
2023/11/04 02:32:01;;;;;;;2.60;0.80;;;;;;;11.55;58.28;96463.16;107687;1273;73747;-87
2023/11/04 02:34:47;;;;;;;3.30;0.90;;;;;;;11.46;58.68;96459.94;107587;1273;72343;-89
2023/11/04 02:37:41;;;;;;;2.10;0.50;;;;;;;11.40;58.74;96469.54;107503;1273;60188;-90
2023/11/04 02:40:31;;;;;;;2.80;0.70;;;;;;;11.33;58.85;96475.11;107453;1273;59536;-90
2023/11/04 02:43:08;;;;;;;3.20;0.90;;;;;;;11.29;58.78;96472.16;107635;1273;77216;-89
2023/11/04 02:45:43;;;;;;;3.50;0.60;;;;;;;11.28;58.98;96469.58;107439;1275;75123;-89
2023/11/04 02:48:37;;;;;;;2.50;0.90;;;;;;;11.30;59.53;96474.73;107424;1275;74832;-89
2023/11/04 02:51:26;;;;;;;2.80;1.00;;;;;;;11.32;59.42;96472.04;107582;1276;61288;-90
2023/11/04 02:54:21;;;;;;;2.00;0.60;;;;;;;11.31;59.58;96468.15;107506;1276;61557;-89
2023/11/04 02:57:09;;;;;;;2.30;0.60;;;;;;;11.29;59.83;96464.60;107507;1275;73350;-90
2023/11/04 03:00:00;;;;;;;2.50;0.90;;;;;;;11.26;60.54;96471.06;107467;1275;73430;-87
2023/11/04 03:02:54;;;;;;;1.90;1.10;;;;;;;11.19;60.60;96478.29;107552;1276;71514;-91
2023/11/04 03:05:37;;;;;;;1.20;0.60;;;;;;;11.13;60.54;96462.80;107508;1276;60555;-89
2023/11/04 03:08:31;;;;;;;4.60;1.50;;;;;;;11.07;60.42;96479.16;107514;1275;62061;-89
2023/11/04 03:11:25;;;;;;;1.90;0.90;;;;;;;11.01;60.80;96486.95;107159;1282;73660;-90
2023/11/04 03:14:12;;;;;;;2.60;0.90;;;;;;;10.97;60.81;96474.90;107085;1285;73340;-88
2023/11/04 03:17:05;;;;;;;1.50;0.80;;;;;;;10.92;61.21;96478.61;106943;1282;71341;-89
2023/11/04 03:19:46;;;;;;;3.60;1.10;;;;;;;10.88;61.30;96479.02;106700;1285;60088;-88
2023/11/04 03:22:39;;;;;;;3.10;0.90;;;;;;;10.84;61.16;96482.38;106409;1285;61398;-87
2023/11/04 03:25:32;;;;;;;;;;;;;;;;;;;;;
2023/11/04 03:28:06;;;;;;;3.00;0.90;;;;;;;10.77;61.70;96491.10;106493;1283;75102;-88
2023/11/04 03:30:50;;;;;;;2.20;0.60;;;;;;;10.74;61.77;96492.67;106931;1283;71586;-88
2023/11/04 03:33:40;;;;;;;2.70;0.90;;;;;;;10.71;62.08;96488.38;106597;1283;61413;-88
2023/11/04 03:36:25;;;;;;;2.80;1.10;;;;;;;10.67;62.32;96492.13;106600;1283;61028;-88
2023/11/04 03:39:18;;;;;;;3.90;1.00;;;;;;;10.64;62.56;96493.55;106390;1288;74708;-88
2023/11/04 03:42:24;;;;;;;2.30;0.90;;;;;;;10.59;62.55;96501.55;106569;1283;74166;-88
2023/11/04 03:45:26;;;;;;;2.20;0.90;;;;;;;10.54;62.60;96507.08;106922;1283;74669;-89
2023/11/04 03:48:18;;;;;;;1.40;0.60;;;;;;;10.48;63.10;96515.54;106736;1283;60529;-86
2023/11/04 03:51:13;;;;;;;;;;;;;;;10.42;63.58;96510.52;106595;1281;59438;-88
2023/11/04 03:53:56;;;;;;;5.00;1.00;;;;;;;10.35;63.59;96508.73;106978;1280;75260;-87
2023/11/04 03:56:43;;;;;;;3.30;0.70;;;;;;;10.29;63.71;96506.78;106947;1279;73418;-88
2023/11/04 03:59:44;;;;;;;2.10;0.90;;;;;;;10.24;63.79;96516.57;107129;1279;73734;-87
2023/11/04 04:02:44;;;;;;;3.00;1.50;;;;;;;10.20;64.23;96529.53;107226;1278;61268;-87
2023/11/04 04:05:38;;;;;;;4.20;1.20;;;;;;;10.15;64.59;96533.02;107216;1278;60772;-87
2023/11/04 04:08:50;;;;;;;;;;;;;;;;;;;;;
2023/11/04 04:11:49;;;;;;;;;;;;;;;;;;;;;
2023/11/04 04:14:30;;;;;;;6.20;1.70;;;;;;;9.97;65.54;96528.31;107008;1282;71330;-87
2023/11/04 04:17:50;;;;;;;4.70;1.70;;;;;;;9.92;65.92;96523.79;106878;1282;59788;-88
2023/11/04 04:20:51;;;;;;;5.40;1.60;;;;;;;9.85;66.25;96509.25;106753;1282;59430;-90
2023/11/04 04:26:46;;;;;;;5.10;1.70;;;;;;;9.74;67.17;96512.52;106319;1286;74977;-89
2023/11/04 04:29:30;;;;;;;5.50;1.60;;;;;;;9.67;67.33;96511.20;106835;1280;72219;-90
2023/11/04 04:32:16;;;;;;;2.60;1.40;;;;;;;9.60;67.78;96509.48;107273;1280;59105;-88
2023/11/04 04:34:57;;;;;;;3.60;2.20;;;;;;;9.55;68.36;96515.59;106955;1280;59679;-88
2023/11/04 04:37:34;;;;;;;4.20;1.20;;;;;;;9.46;68.73;96517.53;106917;1285;75889;-88
2023/11/04 04:40:17;;;;;;;2.70;1.30;;;;;;;9.37;69.30;96521.86;106960;1280;73918;-87
2023/11/04 04:43:16;;;;;;;4.30;1.30;;;;;;;9.29;69.95;96534.55;107162;1280;71417;-88
2023/11/04 04:46:02;;;;;;;;;;;;;;;9.23;70.00;96544.46;107090;1279;63216;-88
2023/11/04 04:48:49;;;;;;;3.10;1.20;;;;;;;9.16;70.29;96545.11;106985;1280;60205;-90
2023/11/04 04:51:57;;;;;;;1.90;1.10;;;;;;;9.10;70.90;96546.20;107111;1279;75753;-88
2023/11/04 04:54:36;;;;;;;5.00;1.20;;;;;;;9.04;71.15;96541.22;106945;1280;74077;-90
2023/11/04 04:57:09;;;;;;;5.20;1.60;;;;;;;9.00;71.29;96537.30;107063;1275;72779;-87
2023/11/04 05:00:15;;;;;;;4.50;1.60;;;;;;;8.96;71.74;96551.43;107439;1276;61188;-87
2023/11/04 05:03:00;;;;;;;6.30;1.50;;;;;;;8.91;71.74;96561.85;107635;1275;60639;-87
2023/11/04 05:06:18;;;;;;;2.80;1.40;;;;;;;8.86;72.17;96563.52;107595;1276;75870;-89
2023/11/04 05:09:29;;;;;;;;;;;;;;;;;;;;;
2023/11/04 05:12:32;;;;;;;5.00;1.40;;;;;;;8.78;72.75;96574.88;107689;1275;72572;-88
2023/11/04 05:15:40;;;;;;;5.60;2.30;;;;;;;8.74;73.06;96574.87;107713;1275;60041;-89
2023/11/04 05:18:47;;;;;;;6.10;4.30;;;;;;;8.70;73.51;96573.95;107592;1276;59441;-90
2023/11/04 05:22:07;;;;;;;8.10;4.70;;;;;;;8.63;73.94;96578.46;107812;1276;73847;-89
2023/11/04 05:25:10;;;;;;;7.10;3.30;;;;;;;8.57;74.19;96575.45;107749;1275;72837;-90
2023/11/04 05:28:06;;;;;;;6.90;4.50;;;;;;;8.52;74.62;96590.56;107310;1279;72391;-89
2023/11/04 05:31:17;;;;;;;9.10;4.90;;;;;;;8.47;74.92;96591.56;107152;1279;59670;-88
2023/11/04 05:34:12;;;;;;;6.10;4.30;;;;;;;8.42;75.39;96590.36;107121;1279;61504;-89
2023/11/04 05:36:53;;;;;;;14.30;5.50;;;;;;;8.38;75.77;96588.70;107000;1279;73475;-88
2023/11/04 05:43:26;;;;;;;7.90;4.40;;;;;;;8.31;76.39;96580.20;107028;1283;71618;-89
2023/11/04 05:46:19;;;;;;;7.60;5.30;;;;;;;8.30;76.97;96587.29;106847;1282;59572;-90
2023/11/04 05:49:18;;;;;;;12.40;5.40;;;;;;;8.28;76.97;96593.91;106874;1283;61311;-90
2023/11/04 05:52:16;;;;;;;8.40;4.20;;;;;;;8.26;77.59;96584.39;106868;1283;73909;-90
2023/11/04 05:55:02;;;;;;;7.40;4.10;;;;;;;8.26;77.69;96583.55;106771;1283;74214;-90
2023/11/04 05:58:15;;;;;;;6.50;3.30;;;;;;;8.25;77.76;96578.50;106740;1283;72534;-89
2023/11/04 06:01:55;;;;;;;10.20;3.70;;;;;;;8.24;77.89;96587.64;106908;1283;60492;-89
2023/11/04 06:04:58;;;;;;;8.60;3.40;;;;;;;8.24;78.24;96598.70;106203;1286;62456;-88
2023/11/04 06:08:15;;;;;;;7.00;3.80;;;;;;;8.24;78.42;96596.43;106613;1285;73800;-89
2023/11/04 06:11:56;;;;;;;7.20;3.30;;;;;;;8.24;78.33;96590.29;106682;1285;73074;-90
2023/11/04 06:14:49;;;;;;;;;;;;;;;;;;;;;
2023/11/04 06:18:37;;;;;;;8.90;4.10;;;;;;;8.26;78.68;96576.58;105895;1293;61903;-89
2023/11/04 06:22:28;;;;;;;9.30;4.80;;;;;;;8.26;78.91;96602.95;106277;1290;59694;-87
2023/11/04 06:26:37;;;;;;;11.10;4.70;;;;;;;8.25;78.98;96614.25;106077;1292;73996;-89
2023/11/04 06:29:22;;;;;;;6.60;4.40;;;;;;;8.25;79.05;96616.81;105900;1292;73387;-89
2023/11/04 06:32:27;;;;;;;6.50;4.70;;;;;;;8.24;79.09;96607.09;105930;1294;71502;-88
2023/11/04 06:35:26;;;;;;;6.70;3.90;;;;;;;8.22;79.25;96605.96;105795;1293;62085;-88
2023/11/04 06:38:42;;;;;;;11.70;4.10;;;;;;;8.22;79.35;96598.87;105901;1293;59734;-88
2023/11/04 06:41:20;;;;;;;0.80;0.80;;;;;;;8.21;79.56;96611.92;106427;1287;75519;-88
2023/11/04 06:44:00;;;;;;;11.70;4.40;;;;;;;8.22;79.86;96619.17;106326;1288;74401;-90
2023/11/04 06:46:39;;;;;;;6.00;4.00;;;;;;;8.24;80.17;96632.98;106437;1285;72179;-90
2023/11/04 06:49:23;;;;;;;11.00;5.90;;;;;;;8.27;80.45;96638.72;106410;1285;62340;-88
2023/11/04 06:52:18;;;;;;;16.10;7.90;;;;;;;8.31;80.62;96651.19;106360;1285;61467;-90
2023/11/04 06:55:12;;;;;;;15.60;8.90;;;;;;;8.36;81.02;96654.16;106911;1282;74436;-90
2023/11/04 06:57:42;;;;;;;16.20;8.50;;;;;;;8.42;81.26;96661.82;107283;1271;75143;-87
2023/11/04 07:00:11;;;;;;;24.20;11.90;;;;;;;8.47;81.19;96658.56;107996;1271;74011;-87
2023/11/04 07:02:40;;;;;;;17.30;10.70;;;;;;;8.53;81.12;96658.39;107915;1272;60957;-88
2023/11/04 07:05:11;;;;;;;10.10;7.20;;;;;;;8.59;81.03;96666.83;107453;1273;59498;-90
2023/11/04 07:07:42;;;;;;;10.20;6.20;;;;;;;8.63;80.83;96654.06;107367;1273;75115;-90
2023/11/04 07:10:15;;;;;;;9.50;5.20;;;;;;;8.70;80.51;96660.31;107608;1272;73927;-89
2023/11/04 07:12:49;;;;;;;;;;;;;;;8.76;80.61;96667.68;107674;1273;75535;-89
2023/11/04 07:15:25;;;;;;;7.60;4.10;;;;;;;8.80;80.56;96668.12;107601;1273;60965;-90
2023/11/04 07:17:58;;;;;;;9.60;4.40;;;;;;;8.87;80.27;96668.74;107646;1273;60178;-89
2023/11/04 07:20:34;;;;;;;9.80;4.60;;;;;;;8.93;79.76;96657.88;107782;1273;74543;-89
2023/11/04 07:23:13;;;;;;;7.20;4.40;;;;;;;9.01;79.61;96642.55;108216;1273;74502;-89
2023/11/04 07:25:49;;;;;;;11.40;4.10;;;;;;;9.09;79.62;96640.61;107792;1273;72627;-89
2023/11/04 07:28:25;;;;;;;7.50;3.70;;;;;;;9.17;79.46;96642.83;107655;1273;61000;-90
2023/11/04 07:30:57;;;;;;;8.40;4.10;;;;;;;9.25;79.26;96650.88;107681;1273;61399;-91
2023/11/04 07:33:34;;;;;;;5.30;3.70;;;;;;;9.34;79.01;96644.13;107912;1273;73694;-90
2023/11/04 07:36:16;;;;;;;5.70;3.10;;;;;;;9.45;78.76;96649.60;107646;1273;74590;-92
2023/11/04 07:39:02;;;;;;;8.40;3.20;;;;;;;9.56;78.48;96653.52;102042;1273;7695157;-89
2023/11/04 07:41:54;;;;;;;5.40;3.20;;;;;;;9.66;78.04;96644.35;107887;1273;59158;-90
2023/11/04 07:44:43;;;;;;;6.30;2.40;;;;;;;9.80;77.53;96655.11;108086;1273;73605;-89
2023/11/04 07:47:13;;;;;;;7.70;2.40;;;;;;;9.90;77.42;96664.52;107752;1273;73510;-90
2023/11/04 07:49:53;;;;;;;8.40;2.50;;;;;;;10.00;76.88;96668.20;107872;1273;71748;-88
2023/11/04 07:52:41;;;;;;;;;;;;;;;;;;;;;
2023/11/04 07:55:25;;;;;;;5.00;2.70;;;;;;;10.24;76.58;96657.19;107688;1280;60911;-90
2023/11/04 07:58:21;;;;;;;8.30;2.50;;;;;;;10.33;75.88;96648.47;107541;1277;74325;-90
2023/11/04 08:01:03;;;;;;;4.80;2.30;;;;;;;10.41;75.02;96646.24;107296;1279;74445;-91
2023/11/04 08:03:50;;;;;;;7.90;2.90;;;;;;;10.50;74.87;96645.39;107219;1278;72217;-91
2023/11/04 08:06:29;;;;;;;4.70;2.20;;;;;;;10.58;74.54;96643.98;107335;1279;61153;-91
2023/11/04 08:09:21;;;;;;;5.10;2.50;;;;;;;10.66;74.23;96646.05;107125;1279;59558;-90
2023/11/04 08:12:32;;;;;;;15.00;6.60;;;;;;;10.74;74.14;96638.05;107338;1279;73789;-91
2023/11/04 08:15:40;;;;;;;5.30;3.50;;;;;;;10.84;74.06;96642.45;107095;1281;74810;-90
2023/11/04 08:18:37;;;;;;;4.80;2.70;;;;;;;10.94;73.52;96639.73;106894;1280;71647;-91
2023/11/04 08:21:31;;;;;;;6.80;3.20;;;;;;;11.03;73.15;96633.64;107009;1280;63253;-91
2023/11/04 08:24:21;;;;;;;6.80;3.50;;;;;;;11.13;72.68;96635.52;107260;1282;58742;-91
2023/11/04 08:27:25;;;;;;;7.30;3.60;;;;;;;11.24;72.36;96649.13;107074;1279;73641;-92
2023/11/04 08:30:13;;;;;;;8.70;4.10;;;;;;;11.33;71.99;96650.86;107043;1279;75378;-92
2023/11/04 08:33:20;;;;;;;12.70;5.10;;;;;;;11.45;71.68;96657.56;107096;1279;71575;-90
2023/11/04 08:36:07;;;;;;;11.40;4.60;;;;;;;11.53;71.51;96655.98;106968;1278;64635;-91
2023/11/04 08:38:51;;;;;;;7.40;4.30;;;;;;;11.63;71.46;96657.05;107085;1278;59394;-91
2023/11/04 08:42:02;;;;;;;8.70;4.80;;;;;;;11.70;71.08;96656.69;106981;1278;76416;-92
2023/11/04 08:45:34;;;;;;;6.90;3.40;;;;;;;11.79;70.87;96660.17;106713;1282;73313;-91
2023/11/04 08:48:45;;;;;;;11.60;3.80;;;;;;;11.87;70.75;96652.41;106804;1280;71333;-91
2023/11/04 08:51:49;;;;;;;7.70;3.70;;;;;;;11.94;70.60;96651.77;106193;1285;60947;-91
2023/11/04 08:58:48;;;;;;;5.80;3.40;;;;;;;12.09;70.09;96624.73;106653;1284;74872;-90
2023/11/04 09:05:08;;;;;;;9.60;5.10;;;;;;;12.22;69.58;96606.50;106006;1289;72877;-90
2023/11/04 09:08:22;;;;;;;7.20;4.60;;;;;;;12.28;69.28;96599.20;105653;1292;60789;-91
2023/11/04 09:11:09;;;;;;;7.30;4.70;;;;;;;12.34;69.26;96585.55;105784;1291;60995;-91
2023/11/04 09:13:56;;;;;;;6.50;3.80;;;;;;;12.40;69.63;96581.71;105799;1291;75243;-90
2023/11/04 09:17:25;;;;;;;6.80;3.80;;;;;;;12.49;69.24;96583.25;105769;1292;600948;-88
2023/11/04 09:20:02;;;;;;;11.10;4.40;;;;;;;12.53;68.90;96574.05;108500;1266;61737;-92
2023/11/04 09:22:40;;;;;;;8.90;3.90;;;;;;;12.56;68.63;96582.07;108851;1256;59392;-90
2023/11/04 09:25:32;;;;;;;;;;;;;;;;;;;;;
2023/11/04 09:29:07;;;;;;;8.50;6.00;;;;;;;12.64;68.02;96580.48;108954;1256;76172;-92
2023/11/04 09:31:56;;;;;;;9.60;5.10;;;;;;;12.68;67.79;96569.24;108466;1254;615221;-92
2023/11/04 09:34:49;;;;;;;11.50;4.80;;;;;;;12.70;67.36;96560.15;108717;1259;60743;-92
2023/11/04 09:37:38;;;;;;;9.80;5.30;;;;;;;12.73;67.38;96551.91;108544;1265;61106;-92
2023/11/04 09:40:07;;;;;;;8.60;4.60;;;;;;;12.76;67.43;96562.05;108324;1263;72659;-89
2023/11/04 09:42:35;;;;;;;16.10;9.80;;;;;;;12.80;67.57;96573.67;108633;1262;72632;-89
2023/11/04 09:45:03;;;;;;;9.40;7.40;;;;;;;12.84;67.52;96567.83;108462;1262;71575;-90
2023/11/04 09:47:32;;;;;;;8.90;5.70;;;;;;;12.88;67.38;96559.35;108683;1262;60236;-90
2023/11/04 09:50:00;;;;;;;7.20;5.40;;;;;;;12.91;67.40;96560.58;108674;1262;58951;-89
2023/11/04 09:52:27;;;;;;;7.50;5.00;;;;;;;12.95;67.48;96559.77;108893;1262;71553;-89
2023/11/04 09:54:56;;;;;;;7.20;4.90;;;;;;;12.99;67.26;96556.16;108933;1261;73278;-87
2023/11/04 09:57:24;;;;;;;5.70;4.10;;;;;;;13.02;67.60;96553.84;108923;1261;70457;-88
2023/11/04 09:59:51;;;;;;;8.90;4.00;;;;;;;13.05;67.76;96560.88;108982;1258;58795;-89
2023/11/04 10:02:18;;;;;;;8.70;3.30;;;;;;;13.08;67.74;96561.70;109041;1263;59978;-89
2023/11/04 10:04:45;;;;;;;6.10;3.30;;;;;;;13.09;67.81;96562.94;109200;1255;71221;-90
2023/11/04 10:07:12;;;;;;;8.90;4.50;;;;;;;13.11;67.65;96562.27;109128;1255;73164;-90
2023/11/04 10:09:40;;;;;;;8.60;7.00;;;;;;;13.12;67.74;96561.05;109418;1250;72400;-90
2023/11/04 10:12:07;;;;;;;11.40;7.70;;;;;;;13.13;67.97;96552.91;109394;1250;60743;-89
2023/11/04 10:14:35;;;;;;;8.60;7.00;;;;;;;13.13;67.92;96550.11;109413;1250;59405;-89
2023/11/04 10:17:02;;;;;;;10.60;5.00;;;;;;;13.14;68.12;96548.77;109418;1250;72900;-89
2023/11/04 10:19:29;;;;;;;6.70;4.20;;;;;;;13.14;68.22;96554.54;109416;1250;72942;-89
2023/11/04 10:21:56;;;;;;;7.00;4.10;;;;;;;13.15;68.80;96553.86;109447;1250;72563;-90
2023/11/04 10:24:24;;;;;;;8.20;4.40;;;;;;;13.16;69.37;96555.07;109324;1251;61922;-89
2023/11/04 10:26:51;;;;;;;9.60;5.90;;;;;;;13.16;69.79;96547.52;109334;1251;60485;-90
2023/11/04 10:29:18;;;;;;;11.10;6.20;;;;;;;13.16;69.98;96539.91;109417;1251;73304;-90
2023/11/04 10:31:46;;;;;;;13.80;5.80;;;;;;;13.16;69.99;96533.23;109465;1251;74192;-89
2023/11/04 10:34:16;;;;;;;8.60;4.00;;;;;;;13.16;69.94;96527.73;109529;1251;72741;-89
2023/11/04 10:36:45;;;;;;;8.40;5.10;;;;;;;13.15;69.84;96534.32;109694;1251;61853;-89
2023/11/04 10:39:13;;;;;;;11.00;3.60;;;;;;;13.14;69.81;96533.17;109705;1251;59871;-89
2023/11/04 10:41:44;;;;;;;7.60;3.10;;;;;;;13.14;69.41;96531.55;109673;1251;72638;-89
2023/11/04 10:44:21;;;;;;;9.50;3.70;;;;;;;13.12;69.33;96524.60;109665;1251;72932;-89
2023/11/04 10:47:22;;;;;;;7.80;3.20;;;;;;;13.10;69.32;96522.41;109657;1251;71458;-88
2023/11/04 10:49:54;;;;;;;5.10;2.70;;;;;;;13.09;69.29;96520.96;109631;1251;63164;-88
2023/11/04 10:52:23;;;;;;;8.20;2.90;;;;;;;13.07;69.58;96517.23;109337;1251;60823;-89
2023/11/04 10:54:55;;;;;;;9.10;3.40;;;;;;;13.06;69.41;96514.23;109304;1251;72966;-89
2023/11/04 10:57:30;;;;;;;6.00;2.80;;;;;;;13.06;69.27;96513.02;109441;1251;74650;-89
2023/11/04 11:00:13;;;;;;;10.80;3.50;;;;;;;13.07;69.45;96509.54;109492;1251;71599;-87
2023/11/04 11:02:43;;;;;;;7.70;4.50;;;;;;;13.08;69.46;96508.16;109510;1251;60473;-90
2023/11/04 11:05:15;;;;;;;8.80;5.30;;;;;;;13.09;69.30;96496.38;109409;1251;60407;-88
2023/11/04 11:07:45;;;;;;;7.90;5.10;;;;;;;13.10;69.29;96491.52;109465;1250;73083;-89
2023/11/04 11:10:19;;;;;;;7.30;4.40;;;;;;;13.11;69.44;96490.14;109393;1251;75232;-87
2023/11/04 11:12:51;;;;;;;6.30;3.40;;;;;;;13.13;69.52;96494.63;109308;1251;73291;-87
2023/11/04 11:15:18;;;;;;;9.10;3.10;;;;;;;13.15;69.68;96486.70;109682;1251;62418;-87
2023/11/04 11:17:59;;;;;;;5.50;2.90;;;;;;;13.16;69.81;96476.86;109653;1251;59933;-89
2023/11/04 11:20:31;;;;;;;7.70;4.10;;;;;;;13.18;69.70;96469.30;109517;1251;71689;-88
2023/11/04 11:22:59;;;;;;;12.20;4.80;;;;;;;13.19;69.81;96469.67;109705;1250;73368;-88
2023/11/04 11:25:30;;;;;;;8.90;4.80;;;;;;;13.20;69.93;96473.73;109428;1251;71660;-87
2023/11/04 11:27:59;;;;;;;7.00;4.30;;;;;;;13.22;70.13;96469.04;109597;1251;60820;-88
2023/11/04 11:30:44;;;;;;;10.60;5.80;;;;;;;13.22;69.96;96461.45;109376;1251;59562;-88
2023/11/04 11:33:12;;;;;;;7.30;3.60;;;;;;;13.22;70.11;96465.90;109342;1251;74413;-88
2023/11/04 11:35:54;;;;;;;6.90;3.70;;;;;;;13.23;70.57;96465.66;109426;1251;73175;-88
2023/11/04 11:38:21;;;;;;;11.10;4.80;;;;;;;13.24;70.92;96466.64;109437;1251;72123;-87
2023/11/04 11:40:49;;;;;;;12.60;6.80;;;;;;;13.24;71.06;96473.52;109303;1251;61894;-88
2023/11/04 11:43:19;;;;;;;15.20;8.60;;;;;;;13.23;71.08;96475.73;109413;1251;60341;-87
2023/11/04 11:45:47;;;;;;;14.10;8.00;;;;;;;13.23;71.39;96479.20;109453;1251;73004;-88
2023/11/04 11:48:15;;;;;;;12.00;6.50;;;;;;;13.22;71.51;96480.02;109357;1250;73496;-88
2023/11/04 11:50:43;;;;;;;10.80;6.90;;;;;;;13.19;71.48;96480.60;109363;1251;72931;-88
2023/11/04 11:53:10;;;;;;;11.00;6.20;;;;;;;13.19;71.52;96472.40;109353;1251;62042;-88
2023/11/04 11:55:41;;;;;;;13.20;5.50;;;;;;;13.16;71.16;96470.36;109432;1251;59539;-88
2023/11/04 11:58:12;;;;;;;8.20;4.80;;;;;;;13.14;71.34;96472.03;109433;1250;71693;-89
2023/11/04 12:00:39;;;;;;;7.00;4.70;;;;;;;13.12;72.42;96468.91;109418;1251;74154;-89
2023/11/04 12:03:07;;;;;;;7.00;3.90;;;;;;;13.09;73.09;96468.27;109419;1251;70064;-87
2023/11/04 12:05:34;;;;;;;4.70;3.90;;;;;;;13.07;73.79;96459.55;109423;1250;60726;-88
2023/11/04 12:08:02;;;;;;;7.40;4.30;;;;;;;13.04;74.10;96453.83;109388;1251;61478;-88
2023/11/04 12:10:29;;;;;;;9.50;5.00;;;;;;;13.01;74.07;96449.05;109433;1250;72992;-88
2023/11/04 12:12:59;;;;;;;9.00;4.80;;;;;;;12.98;74.10;96447.70;109411;1251;73112;-89
2023/11/04 12:15:26;;;;;;;6.90;4.90;;;;;;;12.96;74.08;96445.95;109463;1251;73525;-88
2023/11/04 12:17:58;;;;;;;8.10;5.20;;;;;;;12.94;73.96;96442.23;109601;1251;62944;-87
2023/11/04 12:20:26;;;;;;;7.30;4.00;;;;;;;12.93;74.08;96441.27;109644;1251;58994;-89
2023/11/04 12:22:54;;;;;;;4.70;3.70;;;;;;;12.92;74.08;96434.77;109412;1250;72727;-89
2023/11/04 12:25:22;;;;;;;4.50;3.20;;;;;;;12.91;73.90;96433.84;109447;1251;75326;-89
2023/11/04 12:27:50;;;;;;;5.80;3.50;;;;;;;12.88;73.91;96437.84;109420;1251;71653;-89
2023/11/04 12:30:17;;;;;;;9.80;3.70;;;;;;;12.88;73.77;96435.76;109400;1251;62913;-89
2023/11/04 12:32:49;;;;;;;8.90;3.40;;;;;;;12.85;73.54;96436.59;109378;1251;59225;-89
2023/11/04 12:35:17;;;;;;;4.40;3.20;;;;;;;12.84;73.08;96437.27;109740;1251;72189;-89
2023/11/04 12:37:45;;;;;;;2.70;2.20;;;;;;;12.82;72.69;96436.41;109616;1251;73796;-88
2023/11/04 12:40:13;;;;;;;4.50;2.40;;;;;;;12.81;72.43;96433.77;109587;1251;71115;-88
2023/11/04 12:42:41;;;;;;;5.00;2.60;;;;;;;12.81;72.36;96433.59;109731;1251;59869;-88
2023/11/04 12:45:11;;;;;;;9.90;3.60;;;;;;;12.80;72.51;96429.77;109695;1251;59858;-88
2023/11/04 12:47:39;;;;;;;8.70;2.80;;;;;;;12.80;72.39;96424.36;109612;1251;74184;-89
2023/11/04 12:50:07;;;;;;;6.80;3.30;;;;;;;12.81;72.48;96428.64;109683;1251;74038;-88
2023/11/04 12:52:35;;;;;;;9.00;3.10;;;;;;;12.81;72.96;96439.56;109704;1251;72557;-89
2023/11/04 12:55:03;;;;;;;7.80;3.00;;;;;;;12.81;73.04;96442.23;109591;1251;61532;-89
2023/11/04 12:57:31;;;;;;;6.80;3.20;;;;;;;12.81;73.30;96446.86;109510;1251;59990;-89
2023/11/04 12:59:58;;;;;;;7.80;4.70;;;;;;;12.82;73.64;96455.98;109477;1251;73682;-89
2023/11/04 13:02:25;;;;;;;9.10;4.70;;;;;;;12.82;73.60;96452.05;109552;1251;75059;-88
2023/11/04 13:04:56;;;;;;;6.90;4.00;;;;;;;12.80;74.00;96444.64;109671;1251;70656;-89
2023/11/04 13:07:24;;;;;;;12.60;3.00;;;;;;;12.76;74.92;96443.13;109546;1251;63238;-91
2023/11/04 13:09:54;;;;;;;6.90;3.70;;;;;;;12.71;75.02;96439.63;109378;1251;59970;-89
2023/11/04 13:12:22;;;;;;;4.50;3.20;;;;;;;12.66;74.72;96434.20;109371;1251;73121;-90
2023/11/04 13:14:52;;;;;;;4.50;3.30;;;;;;;12.62;74.90;96426.28;109431;1251;73027;-91